CST,Max TemperatureF,Mean TemperatureF,Min TemperatureF,Max Dew PointF,MeanDew PointF,Min DewpointF,Max Humidity, Mean Humidity, Min Humidity, Max Sea Level PressureIn, Mean Sea Level PressureIn, Min Sea Level PressureIn, Max VisibilityMiles, Mean VisibilityMiles, Min VisibilityMiles, Max Wind SpeedMPH, Mean Wind SpeedMPH, Max Gust SpeedMPH,PrecipitationIn, CloudCover, Events, WindDirDegrees
2012-1-1,54,45,36,34,23,14,65,45,24,30.49,30.31,29.94,10,10,9,28,14,39,0.00,2,,302
2012-1-2,38,32,25,12,6,-3,50,35,19,30.62,30.54,30.49,10,10,10,22,11,32,0.00,0,,300
2012-1-3,49,33,17,14,9,3,74,48,21,30.56,30.38,30.15,10,10,10,21,8,25,0.00,0,,161
2012-1-4,58,48,37,28,24,16,53,42,30,30.29,30.20,30.11,10,10,10,18,9,26,0.00,0,,277
2012-1-5,66,52,38,27,24,21,49,34,19,30.25,30.13,29.96,10,10,10,16,6,23,0.00,0,,235
2012-1-6,67,58,48,47,38,25,77,55,32,29.95,29.90,29.83,10,10,10,21,7,29,0.00,0,,204
2012-1-7,56,47,38,45,27,22,86,56,26,30.14,30.07,29.94,10,10,10,13,6,17,T,3,Rain,28
2012-1-8,46,43,39,34,29,24,70,54,37,30.23,30.18,30.13,10,10,6,10,4,14,T,7,Rain,69
2012-1-9,54,43,32,31,26,19,76,51,26,30.25,30.18,30.13,10,10,9,9,3,25,0.00,3,,341
2012-1-10,45,38,31,38,33,23,100,73,45,30.12,29.89,29.72,10,6,2,10,4,14,0.57,7,Rain,134
2012-1-11,56,45,33,39,35,29,100,68,35,29.80,29.68,29.61,10,7,2,23,9,33,0.01,5,Rain-Snow,291
2012-1-12,33,27,20,28,16,7,85,70,54,30.07,29.92,29.81,10,7,2,24,16,37,0.01,7,Snow,292
2012-1-13,38,29,20,13,4,-1,46,35,24,30.21,30.13,30.05,10,10,10,17,8,24,0.00,0,,274
2012-1-14,49,38,27,25,22,14,69,50,31,30.32,30.15,30.01,10,10,10,23,10,35,0.00,0,,273
2012-1-15,56,40,24,34,26,21,88,60,32,30.32,30.21,30.00,10,10,10,24,14,30,0.00,0,,147
2012-1-16,69,61,53,55,49,38,77,62,46,29.99,29.86,29.74,10,10,10,24,15,40,0.00,3,,191
2012-1-17,67,45,23,55,31,14,82,63,44,30.39,30.06,29.72,10,10,8,26,14,37,T,2,Rain-Thunderstorm,294
2012-1-18,40,27,13,18,16,12,88,64,40,30.38,30.21,29.97,10,10,9,14,5,17,0.00,0,,138
2012-1-19,57,43,28,29,24,17,70,52,33,29.99,29.92,29.85,10,10,10,10,4,14,0.00,0,,87
2012-1-20,38,34,30,38,33,27,100,88,75,29.99,29.87,29.73,10,2,0,17,8,22,0.00,5,Fog,87
2012-1-21,35,29,22,32,25,18,100,82,64,30.17,30.04,29.91,10,7,1,20,9,25,0.00,5,,20
2012-1-22,62,46,29,51,40,27,100,68,36,29.92,29.70,29.50,10,6,0,35,15,48,0.00,6,Fog,151
2012-1-23,54,45,35,32,25,18,76,51,26,30.10,29.93,29.65,10,10,10,31,12,45,0.00,1,,275
2012-1-24,59,44,29,30,24,20,78,50,21,30.25,30.18,30.10,10,10,10,15,7,20,0.00,0,,120
2012-1-25,44,41,37,39,38,33,100,77,53,30.18,30.03,29.88,10,4,2,21,8,29,2.62,8,Rain,87
2012-1-26,45,42,39,41,38,25,100,76,51,29.91,29.85,29.79,10,6,0,16,8,22,0.05,6,Fog-Rain,309
2012-1-27,54,43,31,37,30,25,78,58,38,30.10,29.98,29.89,10,10,10,22,7,29,T,3,Rain,214
2012-1-28,46,37,28,30,19,12,82,54,25,30.43,30.34,30.12,10,10,10,20,6,30,0.00,1,,292
2012-1-29,58,47,36,21,16,13,44,31,17,30.36,30.29,30.22,10,10,10,18,9,29,0.00,0,,236
2012-1-30,66,54,41,43,32,18,57,43,29,30.21,30.12,30.02,10,10,10,22,9,31,0.00,0,,185
2012-1-31,63,58,53,52,48,36,86,67,47,30.06,30.02,29.95,10,10,9,17,9,24,0.00,7,,182